GMMXGMAD

Guest
Details From GMMX - MENARA
To GMAD - Agadir AL MASSIRA
Flight Number -
Tags generated
Created
Modified
Stats Distance 105 nm / 194 km
Max Altitude 5,500 ft / 1,676 m
Waypoints 3
Social Downloads 4
Likes 0
Share VATSIM

Download

Looking for another format? Having issues loading an existing format? Contact us
Advertisement - Login to hide

Notes

Basic altitude profile: - Ascent Rate: 2500ft/min - Ascent Speed: 250kts - Cruise Altitude: 35000ft - Cruise Speed: 420kts - Descent Rate: 1500ft/min - Descent Speed: 250kts Options: - Use NATs: yes - Use PACOTS: yes - Use low airways: yes - Use high airways: yes

Route

GMMX OLOMA GMAD

ID Type Via Altitude Latitude Longitude Leg Dist Tot Dist Heading (true) Name
O GMMX APT - 0 ft / 0 m 31.60692˚ -8.03627˚ - 0 nm - MENARA
OLOMA FIX - 5,500 ft / 1,676 m 30.64083˚ -9.07167˚ 78 nm 78 nm 223° / 222° -
O GMAD APT - 0 ft / 0 m 30.32262˚ -9.41153˚ 25 nm 104 nm 223° / 223° Agadir AL MASSIRA

Altitude Profile

Advertisement - Login to hide

GMMX

Details ICAO GMMX (RAK)
Name MENARA
Region Morocco
Timezone Africa/Casablanca (UTC+0.0)
Stats Elevation 1,545 ft / 471 m (AMSL)
Location 31.606920° -8.036265°
Runways 1
Magnetic Variation 1.950° W

METAR

GMMX 261730Z 29004KT 260V330 9999 OVC026 22/11 Q1013 NOSIG

Decode

TAF

TAF GMMX 261100Z 2612/2718 26006KT 8000 BKN023 TEMPO 2617/2622 32014KT

Decode

Departure Runways

ID Width Length Bearing (true) Bearing (mag) Surface Threshold Offset Overrun Length
10 148 ft / 45 m 10,169 ft / 3,100 m 95.99° 97.94° Asphalt 918 ft / 280 m 0 ft / 0 m
28 148 ft / 45 m 10,169 ft / 3,100 m 276.00° 277.95° Asphalt 0 ft / 0 m 0 ft / 0 m

GMAD

Details ICAO GMAD
Name Agadir AL MASSIRA
Region Morocco
Timezone Africa/Casablanca (UTC+0.0)
Stats Elevation 250 ft / 76 m (AMSL)
Location 30.322623° -9.411528°
Runways 1
Magnetic Variation 2.433° W

METAR

GMAD 261730Z AUTO 25013KT 210V280 9999NDV /// 22/12 Q1012

Decode

TAF

TAF GMAD 261100Z 2612/2718 26014KT 9999 SCT020 BECMG 2622/2624 18006KT BKN013 BECMG 2712/2714 26014KT 9999 SCT020

Decode

Destination Runways

ID Width Length Bearing (true) Bearing (mag) Surface Threshold Offset Overrun Length
10 148 ft / 45 m 10,509 ft / 3,203 m 91.58° 94.01° Asphalt 0 ft / 0 m 0 ft / 0 m
28 148 ft / 45 m 10,509 ft / 3,203 m 271.60° 274.03° Asphalt 0 ft / 0 m 0 ft / 0 m

Approach Navaids

Runway Type Ident Frequency Range Bearing (true) Bearing (mag) Slope Elevation
28 Localiser ADA 110.30 MHz 18 nm / 33 km 273.07° 275.50° - 250 ft / 76 m (AMSL)
28 Glidescope ADA 110.30 MHz 10 nm / 19 km 271.59° 274.02° 3.00° 250 ft / 76 m (AMSL)

Popular Alternatives